Morrisdale, Pennsylvania
Current Conditions -  °F | °C
As of 6:54 PM on Friday 24 Oct 2014 (Local Time) from KFIG Reporting Station
Clear Clear  
Wind Chill: 53°   Ceiling: Unl
Heat Index: 53°   Visibility: 10mi
Dew Point: 36°   Wind: 6mph
Humidity: 52%   Direction: 250°WSW
Pressure: 29.97"   Gusts: NA
Location:  40.95°N, 78.23°W
Report Text: KFIG 242254Z AUTO 25005KT 10SM CLR 12/02 A2997 RMK AO2 SLP152 T01170022
Loading
Personal Weather Stations






























Interactive Weather Map
Tropical Storm Tracking
New forecast layout! Learn more

10-Day Weather Forecast

Advertisements
Track Severe Weather on mobile